createdAt,value
2022-12-13T00:01:38.502Z,52.85
2022-12-13T00:05:45.920Z,52.15
2022-12-13T00:09:49.100Z,51.90
2022-12-13T00:13:49.938Z,52.34
2022-12-13T00:17:50.609Z,52.81
2022-12-13T00:21:51.373Z,52.99
2022-12-13T00:25:54.575Z,53.44
2022-12-13T00:29:54.869Z,52.36
2022-12-13T00:33:55.390Z,51.94
2022-12-13T00:37:55.599Z,52.97
2022-12-13T00:41:58.747Z,52.63
2022-12-13T00:45:59.539Z,52.28
2022-12-13T00:50:00.132Z,51.93
2022-12-13T00:54:01.952Z,52.23
2022-12-13T00:58:04.718Z,51.50
2022-12-13T01:02:04.963Z,51.69
2022-12-13T01:06:15.679Z,51.34
2022-12-13T01:10:16.820Z,51.53
2022-12-13T01:14:21.440Z,52.20
2022-12-13T01:18:21.831Z,52.10
2022-12-13T01:22:22.104Z,51.87
2022-12-13T01:26:24.853Z,52.10
2022-12-13T01:30:28.385Z,51.37
2022-12-13T01:34:29.183Z,51.86
2022-12-13T01:38:29.465Z,51.58
2022-12-13T01:42:29.694Z,51.17
2022-12-13T01:46:34.362Z,51.44
2022-12-13T01:50:40.209Z,51.56
2022-12-13T01:54:47.027Z,51.71
2022-12-13T01:58:50.086Z,51.18
2022-12-13T02:02:53.139Z,51.31
2022-12-13T02:06:53.659Z,51.42
2022-12-13T02:10:54.166Z,51.59
2022-12-13T02:14:56.080Z,51.75
2022-12-13T02:19:49.215Z,51.94
2022-12-13T02:24:44.481Z,51.83
2022-12-13T02:29:10.540Z,52.17
2022-12-13T02:33:42.983Z,51.66
2022-12-13T02:37:53.682Z,51.80
2022-12-13T02:42:01.777Z,51.70
2022-12-13T02:46:05.710Z,51.48
2022-12-13T02:50:13.115Z,51.75
2022-12-13T02:54:13.886Z,52.35
2022-12-13T02:58:16.700Z,52.42
2022-12-13T03:02:34.338Z,51.68
2022-12-13T03:06:57.238Z,51.80
2022-12-13T03:11:08.422Z,51.62
2022-12-13T03:15:19.250Z,52.23
2022-12-13T03:19:19.326Z,51.86
2022-12-13T03:23:23.915Z,51.19
2022-12-13T03:27:24.207Z,51.12
2022-12-13T03:31:25.256Z,51.26
2022-12-13T03:35:34.907Z,51.75
2022-12-13T03:39:47.418Z,51.03
2022-12-13T03:43:48.730Z,51.37
2022-12-13T03:47:48.964Z,50.98
2022-12-13T03:51:49.232Z,51.50
2022-12-13T03:55:53.211Z,51.73
2022-12-13T03:59:53.332Z,51.09
2022-12-13T04:03:54.123Z,51.39
2022-12-13T04:07:54.284Z,51.75
2022-12-13T04:12:16.154Z,51.35
2022-12-13T04:16:16.402Z,51.49
2022-12-13T04:20:16.631Z,51.38
2022-12-13T04:24:16.804Z,50.96
2022-12-13T04:28:21.732Z,51.08
2022-12-13T04:32:26.533Z,51.28
2022-12-13T04:36:31.703Z,51.21
2022-12-13T04:40:32.815Z,51.08
2022-12-13T04:44:37.254Z,51.41
2022-12-13T04:48:37.520Z,51.80
2022-12-13T04:52:37.671Z,51.33
2022-12-13T04:56:37.952Z,51.03
2022-12-13T05:00:44.335Z,51.06
2022-12-13T05:04:45.135Z,51.05
2022-12-13T05:08:45.319Z,51.13
2022-12-13T05:12:45.808Z,51.22
2022-12-13T05:16:48.762Z,51.24
2022-12-13T05:20:50.997Z,51.20
2022-12-13T05:24:51.878Z,51.49
2022-12-13T05:28:51.988Z,51.30
2022-12-13T05:32:54.652Z,52.24
2022-12-13T05:36:55.081Z,51.70
2022-12-13T05:40:55.299Z,51.41
2022-12-13T05:44:56.211Z,50.97
2022-12-13T05:48:58.902Z,51.95
2022-12-13T05:52:59.161Z,51.69
2022-12-13T05:56:59.920Z,52.02
2022-12-13T06:01:09.816Z,52.20
2022-12-13T06:05:14.986Z,52.31
2022-12-13T06:09:15.557Z,52.15
2022-12-13T06:13:21.523Z,52.28
2022-12-13T06:17:34.345Z,51.88
2022-12-13T06:21:41.300Z,51.56
2022-12-13T06:25:50.205Z,51.31
2022-12-13T06:29:52.059Z,52.44
2022-12-13T06:33:52.182Z,52.34
2022-12-13T06:38:01.115Z,52.54
2022-12-13T06:42:02.710Z,51.80
2022-12-13T06:46:02.864Z,51.38
2022-12-13T06:50:05.297Z,51.44
2022-12-13T06:54:08.745Z,52.09
2022-12-13T06:58:08.929Z,51.61
2022-12-13T07:02:15.515Z,51.30
2022-12-13T07:06:27.833Z,51.56
2022-12-13T07:10:31.924Z,51.14
2022-12-13T07:14:32.056Z,51.24
2022-12-13T07:18:41.948Z,51.50
2022-12-13T07:22:47.537Z,51.27
2022-12-13T07:26:51.290Z,51.04
2022-12-13T07:30:52.016Z,51.54
2022-12-13T07:34:52.250Z,51.67
2022-12-13T07:38:55.447Z,51.65
2022-12-13T07:42:59.792Z,51.24
2022-12-13T07:47:00.063Z,51.45
2022-12-13T07:51:06.905Z,51.85
2022-12-13T07:55:08.227Z,51.70
2022-12-13T07:59:12.005Z,51.28
2022-12-13T08:03:25.262Z,50.60
2022-12-13T08:07:26.092Z,50.57
2022-12-13T08:11:26.899Z,49.59
2022-12-13T08:15:29.667Z,49.24
2022-12-13T08:19:29.739Z,48.13
2022-12-13T08:23:32.308Z,47.79
2022-12-13T08:27:32.628Z,47.20
2022-12-13T08:31:36.009Z,47.03
2022-12-13T08:35:38.277Z,46.29
2022-12-13T08:39:42.426Z,45.94
2022-12-13T08:43:43.277Z,46.00
2022-12-13T08:47:46.149Z,46.29
2022-12-13T08:51:46.359Z,46.07
2022-12-13T08:55:47.111Z,45.71
2022-12-13T08:59:47.355Z,44.88
2022-12-13T09:03:49.993Z,44.56
2022-12-13T09:07:50.104Z,44.56
2022-12-13T09:11:50.235Z,44.42
2022-12-13T09:16:01.504Z,44.37
2022-12-13T09:20:10.193Z,43.75
2022-12-13T09:24:26.131Z,42.89
2022-12-13T09:28:26.404Z,42.91
2022-12-13T09:32:27.756Z,42.66
2022-12-13T09:36:30.412Z,41.99
2022-12-13T09:40:37.562Z,41.40
2022-12-13T09:44:49.717Z,42.08
2022-12-13T09:49:01.863Z,41.67
2022-12-13T09:53:12.094Z,41.12
2022-12-13T09:57:34.349Z,40.89
2022-12-13T10:01:34.673Z,38.97
2022-12-13T10:05:40.261Z,38.72
2022-12-13T10:09:45.944Z,38.68
2022-12-13T10:13:51.612Z,40.65
2022-12-13T10:17:55.089Z,38.07
2022-12-13T10:22:02.847Z,37.17
2022-12-13T10:26:24.196Z,36.72
2022-12-13T10:30:29.217Z,37.16
2022-12-13T10:34:39.602Z,36.96
2022-12-13T10:38:46.457Z,37.90
2022-12-13T10:43:17.286Z,36.83
2022-12-13T10:47:23.906Z,36.46
2022-12-13T10:51:25.686Z,36.46
2022-12-13T10:55:32.867Z,35.68
2022-12-13T10:59:42.099Z,35.74
2022-12-13T11:03:42.652Z,35.76
2022-12-13T11:07:43.754Z,34.95
2022-12-13T11:11:44.162Z,34.82
2022-12-13T11:15:47.964Z,34.45
2022-12-13T11:19:54.373Z,33.11
2022-12-13T11:23:56.215Z,31.58
2022-12-13T11:28:26.330Z,32.23
2022-12-13T11:32:58.764Z,33.28
2022-12-13T11:37:16.611Z,33.76
2022-12-13T11:41:31.367Z,31.93
2022-12-13T11:45:45.186Z,31.43
2022-12-13T11:49:53.525Z,30.75
2022-12-13T11:54:03.269Z,30.59
2022-12-13T11:58:53.530Z,29.92
2022-12-13T12:02:52.371Z,30.36
2022-12-13T12:07:24.446Z,32.16
2022-12-13T12:11:33.304Z,31.57
2022-12-13T12:15:44.162Z,29.01
2022-12-13T12:19:49.563Z,28.52
2022-12-13T12:24:14.566Z,28.08
2022-12-13T12:28:30.633Z,27.69
2022-12-13T12:32:44.166Z,27.27
2022-12-13T12:37:06.490Z,28.69
2022-12-13T12:41:45.551Z,26.41
2022-12-13T12:46:05.168Z,27.64
2022-12-13T12:51:28.352Z,28.67
2022-12-13T12:56:04.495Z,28.00
2022-12-13T13:01:19.141Z,28.10
2022-12-13T13:06:08.323Z,29.51
2022-12-13T13:16:05.169Z,29.15
2022-12-13T13:20:26.343Z,30.31
2022-12-13T13:24:30.148Z,29.99
2022-12-13T13:28:30.868Z,28.91
2022-12-13T13:32:34.445Z,28.20
2022-12-13T13:36:53.021Z,28.82
2022-12-13T13:40:54.096Z,29.63
2022-12-13T13:45:23.218Z,29.48
2022-12-13T13:49:25.420Z,29.09
2022-12-13T13:54:19.980Z,29.21
2022-12-13T13:59:03.217Z,29.99
2022-12-13T14:03:51.421Z,30.68
2022-12-13T14:08:24.313Z,31.25
2022-12-13T14:13:24.845Z,32.03
2022-12-13T14:18:36.254Z,33.23
2022-12-13T14:22:44.766Z,34.42
2022-12-13T14:27:09.995Z,36.02
2022-12-13T14:31:22.367Z,36.74
2022-12-13T14:35:32.346Z,38.19
2022-12-13T14:39:34.869Z,39.13
2022-12-13T14:43:38.201Z,39.65
2022-12-13T14:47:39.458Z,39.98
2022-12-13T14:51:42.631Z,40.71
2022-12-13T14:55:43.946Z,41.57
2022-12-13T14:59:50.667Z,42.18
2022-12-13T15:03:51.159Z,42.75
2022-12-13T15:07:53.963Z,43.17
2022-12-13T15:11:58.584Z,43.98
2022-12-13T15:16:10.299Z,44.43
2022-12-13T15:20:27.787Z,44.41
2022-12-13T15:24:40.675Z,45.14
2022-12-13T15:28:47.139Z,45.36
2022-12-13T15:33:07.197Z,46.59
2022-12-13T15:37:29.317Z,46.78
2022-12-13T15:41:37.679Z,47.23
2022-12-13T15:45:38.768Z,47.45
2022-12-13T15:49:43.901Z,47.54
2022-12-13T15:54:06.426Z,47.80
2022-12-13T15:58:29.959Z,47.50
2022-12-13T16:02:31.106Z,47.83
2022-12-13T16:06:31.558Z,48.31
2022-12-13T16:10:32.922Z,48.18
2022-12-13T16:14:48.781Z,48.71
2022-12-13T16:18:56.962Z,48.57
2022-12-13T16:22:59.969Z,48.08
2022-12-13T16:27:00.347Z,48.53
2022-12-13T16:31:21.176Z,48.48
2022-12-13T16:35:22.288Z,48.05
2022-12-13T16:39:23.519Z,48.71
2022-12-13T16:43:33.343Z,48.53
2022-12-13T16:47:44.671Z,48.98
2022-12-13T16:51:49.220Z,49.41
2022-12-13T16:55:58.427Z,49.01
2022-12-13T16:59:59.867Z,49.09
2022-12-13T17:04:09.142Z,48.82
2022-12-13T17:08:14.096Z,48.98
2022-12-13T17:12:14.600Z,49.11
2022-12-13T17:16:15.088Z,48.88
2022-12-13T17:20:20.969Z,49.18
2022-12-13T17:24:21.651Z,48.91
2022-12-13T17:28:21.897Z,48.83
2022-12-13T17:32:22.250Z,48.85
2022-12-13T17:36:26.232Z,48.40
2022-12-13T17:40:26.498Z,48.10
2022-12-13T17:44:27.782Z,48.08
2022-12-13T17:48:30.632Z,47.66
2022-12-13T17:52:37.035Z,47.58
2022-12-13T17:56:37.273Z,47.18
2022-12-13T18:00:39.385Z,47.07
2022-12-13T18:04:39.787Z,47.17
2022-12-13T18:08:44.651Z,47.26
2022-12-13T18:12:44.934Z,47.21
2022-12-13T18:16:45.195Z,47.50
2022-12-13T18:20:46.539Z,47.33
2022-12-13T18:24:49.311Z,47.36
2022-12-13T18:28:50.320Z,47.85
2022-12-13T18:32:50.761Z,48.02
2022-12-13T18:36:51.061Z,48.61
2022-12-13T18:40:55.768Z,49.20
2022-12-13T18:44:56.084Z,49.18
2022-12-13T18:48:56.839Z,49.41
2022-12-13T18:52:57.337Z,49.17
2022-12-13T18:57:00.996Z,49.04
2022-12-13T19:01:01.737Z,48.83
2022-12-13T19:05:01.991Z,48.65
2022-12-13T19:09:02.599Z,48.66
2022-12-13T19:13:05.633Z,48.60
2022-12-13T19:17:05.959Z,48.71
2022-12-13T19:21:10.780Z,49.22
2022-12-13T19:25:13.762Z,48.77
2022-12-13T19:29:17.222Z,48.77
2022-12-13T19:33:18.508Z,48.63
2022-12-13T19:37:18.773Z,48.44
2022-12-13T19:41:21.942Z,48.61
2022-12-13T19:45:24.970Z,48.44
2022-12-13T19:49:25.127Z,48.16
2022-12-13T19:53:25.996Z,48.12
2022-12-13T19:57:27.015Z,47.73
2022-12-13T20:01:30.038Z,48.01
2022-12-13T20:05:31.213Z,47.89
2022-12-13T20:09:31.513Z,47.96
2022-12-13T20:13:32.834Z,47.76
2022-12-13T20:17:36.018Z,47.97
2022-12-13T20:21:36.401Z,47.82
2022-12-13T20:25:36.959Z,47.25
2022-12-13T20:29:37.393Z,47.95
2022-12-13T20:33:42.483Z,47.54
2022-12-13T20:37:42.968Z,47.70
2022-12-13T20:41:48.436Z,47.84
2022-12-13T20:45:49.175Z,47.77
2022-12-13T20:49:51.966Z,47.74
2022-12-13T20:53:54.702Z,47.66
2022-12-13T20:57:55.121Z,47.64
2022-12-13T21:01:55.419Z,47.56
2022-12-13T21:05:58.889Z,47.60
2022-12-13T21:09:59.371Z,47.60
2022-12-13T21:14:08.364Z,47.78
2022-12-13T21:18:11.934Z,47.63
2022-12-13T21:22:15.810Z,47.71
2022-12-13T21:26:16.267Z,47.42
2022-12-13T21:30:17.346Z,47.26
2022-12-13T21:34:17.858Z,47.14
2022-12-13T21:38:20.973Z,47.37
2022-12-13T21:42:21.459Z,47.53
2022-12-13T21:46:31.307Z,47.93
2022-12-13T21:50:51.826Z,47.79
2022-12-13T21:55:15.354Z,47.42
2022-12-13T21:59:15.848Z,47.20
2022-12-13T22:03:16.430Z,46.89
2022-12-13T22:07:19.514Z,47.08
2022-12-13T22:11:22.912Z,47.08
2022-12-13T22:15:24.197Z,47.12
2022-12-13T22:19:24.969Z,47.00
2022-12-13T22:23:25.356Z,47.00
2022-12-13T22:27:28.158Z,47.02
2022-12-13T22:31:30.032Z,47.02
2022-12-13T22:35:30.223Z,46.89
2022-12-13T22:39:30.431Z,47.24
2022-12-13T22:43:37.643Z,46.76
2022-12-13T22:47:37.915Z,46.93
2022-12-13T22:51:38.770Z,47.27
2022-12-13T22:55:40.791Z,47.00
2022-12-13T22:59:43.606Z,46.63
2022-12-13T23:03:45.111Z,46.50
2022-12-13T23:07:48.423Z,46.81
2022-12-13T23:12:01.373Z,46.64
2022-12-13T23:16:08.321Z,46.70
2022-12-13T23:20:11.231Z,46.78
2022-12-13T23:24:12.457Z,46.76
2022-12-13T23:28:12.643Z,47.08
2022-12-13T23:32:15.617Z,47.10
2022-12-13T23:36:22.653Z,46.73
2022-12-13T23:40:22.766Z,46.79
2022-12-13T23:44:23.007Z,46.75
2022-12-13T23:48:27.134Z,46.54
2022-12-13T23:52:27.431Z,47.06
2022-12-13T23:56:27.719Z,46.92
